ウランバートル の空港の天気 - METARとTAF

チンギスハーン国際空港 ( ZMUB / ULN ) - モンゴル ウランバートル
飛行場実況気象(Metar)
観測時間08/18 11:00 ULAT (08/18 03:00 UTC)
風向・風速北東 4m/s
視程10km以上
天気現象
少しの雲 雲底高度 910m
全天の4割程度の雲 雲底高度 1010m
気温19℃
湿度73%
気圧1016hPa
METARZMUB 180300Z 04004MPS 360V080 9999 FEW030CB SCT033 19/14 Q1016 R14140095 NOSIG RMK QFE654.6 72 MOP
過去の天気等 Google飛行場航空写真 Wunderground天気予報

過去48時間のMETAR

飛行場予報(TAF)
発表時間: 8/18 06:55 ULAT (8/17 22:55 UTC)
予報対象時間: 18日8時 ULAT ~ 19日14時 ULAT
風向・風速不定 2m/s
視程10km以上
天気現象弱い雨
少しの雲 雲底高度 610m
少しの積乱雲 雲底高度 820m
全天の8割程度の雲 雲底高度 910m
18日10時 ULAT ~ 18日12時 ULAT に徐々に
天気現象運行に影響にある天気現象が終了
少しの積乱雲 雲底高度 910m
全天の4割程度の雲 雲底高度 1,010m
18日11時 ULAT ~ 18日23時 ULAT に一時的に
風向・風速不定 8m/s
天気現象雷 しゅう雨
全天の4割程度の積乱雲 雲底高度 820m
全天の4割程度の雲 雲底高度 910m
19日6時 ULAT ~ 19日14時 ULAT に 確率 40% で一時的に
風向・風速不定 8m/s
天気現象雷 しゅう雨
全天の4割程度の積乱雲 雲底高度 820m
全天の4割程度の雲 雲底高度 910m
TAF ZMUB 172255Z 1800/1906 VRB02MPS 9999 -RA FEW020 FEW027CB BKN030 TX21/1807Z TN12/1821Z
BECMG 1802/1804 NSW FEW030CB SCT033
TEMPO 1803/1815 VRB08MPS TS SHRA SCT027CB SCT030
PROB40 TEMPO 1822/1906 VRB08MPS TS SHRA SCT027CB SCT030